sensor_id;sensor_type;location;lat;lon;timestamp;P1;durP1;ratioP1;P2;durP2;ratioP2
36575;SDS011;45700;50.930;5.168;2022-09-17T00:01:31;3.55;;;0.80;;
36575;SDS011;45700;50.930;5.168;2022-09-17T00:05:32;1.08;;;0.60;;
36575;SDS011;45700;50.930;5.168;2022-09-17T00:09:33;1.27;;;0.50;;
36575;SDS011;45700;50.930;5.168;2022-09-17T00:13:34;2.45;;;0.57;;
36575;SDS011;45700;50.930;5.168;2022-09-17T00:17:35;1.23;;;0.45;;
36575;SDS011;45700;50.930;5.168;2022-09-17T00:21:36;3.38;;;0.80;;
36575;SDS011;45700;50.930;5.168;2022-09-17T00:25:40;2.88;;;0.73;;
36575;SDS011;45700;50.930;5.168;2022-09-17T00:29:41;2.30;;;0.60;;
36575;SDS011;45700;50.930;5.168;2022-09-17T00:33:42;1.45;;;0.43;;
36575;SDS011;45700;50.930;5.168;2022-09-17T00:37:44;0.88;;;0.43;;
36575;SDS011;45700;50.930;5.168;2022-09-17T00:41:45;2.83;;;0.60;;
36575;SDS011;45700;50.930;5.168;2022-09-17T00:45:46;2.92;;;0.60;;
36575;SDS011;45700;50.930;5.168;2022-09-17T00:49:48;1.17;;;0.43;;
36575;SDS011;45700;50.930;5.168;2022-09-17T00:53:49;2.97;;;0.80;;
36575;SDS011;45700;50.930;5.168;2022-09-17T00:57:51;1.20;;;0.60;;
36575;SDS011;45700;50.930;5.168;2022-09-17T01:01:53;2.58;;;0.60;;
36575;SDS011;45700;50.930;5.168;2022-09-17T01:18:21;1.73;;;1.00;;
36575;SDS011;45700;50.930;5.168;2022-09-17T01:43:53;5.03;;;0.88;;
36575;SDS011;45700;50.930;5.168;2022-09-17T01:47:56;4.55;;;0.68;;
36575;SDS011;45700;50.930;5.168;2022-09-17T01:51:59;2.38;;;0.68;;
36575;SDS011;45700;50.930;5.168;2022-09-17T01:56:00;1.48;;;0.60;;
36575;SDS011;45700;50.930;5.168;2022-09-17T02:00:05;2.13;;;0.40;;
36575;SDS011;45700;50.930;5.168;2022-09-17T02:04:10;3.95;;;0.68;;
36575;SDS011;45700;50.930;5.168;2022-09-17T02:08:17;3.90;;;0.63;;
36575;SDS011;45700;50.930;5.168;2022-09-17T02:12:24;1.58;;;0.70;;
36575;SDS011;45700;50.930;5.168;2022-09-17T02:16:28;2.08;;;0.40;;
36575;SDS011;45700;50.930;5.168;2022-09-17T02:20:33;1.02;;;0.40;;
36575;SDS011;45700;50.930;5.168;2022-09-17T02:28:47;0.82;;;0.50;;
36575;SDS011;45700;50.930;5.168;2022-09-17T02:32:50;2.33;;;0.60;;
36575;SDS011;45700;50.930;5.168;2022-09-17T02:36:51;1.50;;;0.68;;
36575;SDS011;45700;50.930;5.168;2022-09-17T02:40:55;2.55;;;0.68;;
36575;SDS011;45700;50.930;5.168;2022-09-17T02:45:05;1.75;;;0.60;;
36575;SDS011;45700;50.930;5.168;2022-09-17T02:57:19;1.98;;;0.43;;
36575;SDS011;45700;50.930;5.168;2022-09-17T03:05:30;3.85;;;0.50;;
36575;SDS011;45700;50.930;5.168;2022-09-17T03:09:32;1.88;;;0.50;;
36575;SDS011;45700;50.930;5.168;2022-09-17T03:13:33;1.42;;;0.65;;
36575;SDS011;45700;50.930;5.168;2022-09-17T03:17:35;3.75;;;0.77;;
36575;SDS011;45700;50.930;5.168;2022-09-17T03:21:36;1.40;;;0.45;;
36575;SDS011;45700;50.930;5.168;2022-09-17T03:25:37;4.47;;;0.88;;
36575;SDS011;45700;50.930;5.168;2022-09-17T03:29:38;0.98;;;0.50;;
36575;SDS011;45700;50.930;5.168;2022-09-17T03:33:39;3.50;;;0.57;;
36575;SDS011;45700;50.930;5.168;2022-09-17T03:37:40;1.98;;;0.50;;
36575;SDS011;45700;50.930;5.168;2022-09-17T03:41:42;1.40;;;0.40;;
36575;SDS011;45700;50.930;5.168;2022-09-17T03:45:43;0.82;;;0.38;;
36575;SDS011;45700;50.930;5.168;2022-09-17T03:49:44;2.40;;;0.70;;
36575;SDS011;45700;50.930;5.168;2022-09-17T03:53:45;0.95;;;0.50;;
36575;SDS011;45700;50.930;5.168;2022-09-17T03:57:46;1.30;;;0.63;;
36575;SDS011;45700;50.930;5.168;2022-09-17T04:01:47;1.95;;;0.70;;
36575;SDS011;45700;50.930;5.168;2022-09-17T04:05:48;1.23;;;0.43;;
36575;SDS011;45700;50.930;5.168;2022-09-17T04:09:49;2.17;;;0.35;;
36575;SDS011;45700;50.930;5.168;2022-09-17T04:13:50;2.97;;;0.50;;
36575;SDS011;45700;50.930;5.168;2022-09-17T04:17:53;1.38;;;0.32;;
36575;SDS011;45700;50.930;5.168;2022-09-17T04:21:55;2.22;;;0.30;;
36575;SDS011;45700;50.930;5.168;2022-09-17T04:25:56;0.75;;;0.47;;
36575;SDS011;45700;50.930;5.168;2022-09-17T04:29:57;3.17;;;0.57;;
36575;SDS011;45700;50.930;5.168;2022-09-17T04:33:58;1.00;;;0.40;;
36575;SDS011;45700;50.930;5.168;2022-09-17T04:37:59;1.85;;;0.55;;
36575;SDS011;45700;50.930;5.168;2022-09-17T04:42:00;0.98;;;0.43;;
36575;SDS011;45700;50.930;5.168;2022-09-17T04:46:01;1.50;;;0.50;;
36575;SDS011;45700;50.930;5.168;2022-09-17T04:50:02;1.05;;;0.47;;
36575;SDS011;45700;50.930;5.168;2022-09-17T04:54:03;2.65;;;0.60;;
36575;SDS011;45700;50.930;5.168;2022-09-17T04:58:04;3.63;;;0.60;;
36575;SDS011;45700;50.930;5.168;2022-09-17T05:02:05;2.78;;;0.40;;
36575;SDS011;45700;50.930;5.168;2022-09-17T05:06:06;1.73;;;0.45;;
36575;SDS011;45700;50.930;5.168;2022-09-17T05:10:08;1.58;;;0.50;;
36575;SDS011;45700;50.930;5.168;2022-09-17T05:14:09;3.00;;;0.88;;
36575;SDS011;45700;50.930;5.168;2022-09-17T05:18:10;1.55;;;0.60;;
36575;SDS011;45700;50.930;5.168;2022-09-17T05:22:11;1.38;;;0.55;;
36575;SDS011;45700;50.930;5.168;2022-09-17T05:26:12;2.58;;;0.80;;
36575;SDS011;45700;50.930;5.168;2022-09-17T05:30:13;3.38;;;0.50;;
36575;SDS011;45700;50.930;5.168;2022-09-17T05:34:14;0.88;;;0.40;;
36575;SDS011;45700;50.930;5.168;2022-09-17T05:38:15;2.92;;;0.65;;
36575;SDS011;45700;50.930;5.168;2022-09-17T05:42:17;1.83;;;0.52;;
36575;SDS011;45700;50.930;5.168;2022-09-17T05:46:18;1.65;;;0.88;;
36575;SDS011;45700;50.930;5.168;2022-09-17T05:50:19;1.75;;;0.68;;
36575;SDS011;45700;50.930;5.168;2022-09-17T05:54:20;2.72;;;0.70;;
36575;SDS011;45700;50.930;5.168;2022-09-17T05:58:21;3.90;;;1.13;;
36575;SDS011;45700;50.930;5.168;2022-09-17T06:02:22;5.82;;;1.77;;
36575;SDS011;45700;50.930;5.168;2022-09-17T06:06:23;3.53;;;0.82;;
36575;SDS011;45700;50.930;5.168;2022-09-17T06:10:28;3.40;;;0.98;;
36575;SDS011;45700;50.930;5.168;2022-09-17T06:14:29;6.03;;;1.48;;
36575;SDS011;45700;50.930;5.168;2022-09-17T06:18:30;6.72;;;2.47;;
36575;SDS011;45700;50.930;5.168;2022-09-17T06:22:31;5.90;;;3.40;;
36575;SDS011;45700;50.930;5.168;2022-09-17T06:26:32;8.20;;;4.28;;
36575;SDS011;45700;50.930;5.168;2022-09-17T06:30:35;4.95;;;3.00;;
36575;SDS011;45700;50.930;5.168;2022-09-17T06:34:36;3.72;;;1.55;;
36575;SDS011;45700;50.930;5.168;2022-09-17T06:38:37;3.13;;;1.02;;
36575;SDS011;45700;50.930;5.168;2022-09-17T06:42:38;2.97;;;0.80;;
36575;SDS011;45700;50.930;5.168;2022-09-17T06:46:39;4.00;;;0.95;;
36575;SDS011;45700;50.930;5.168;2022-09-17T06:50:41;3.28;;;0.75;;
36575;SDS011;45700;50.930;5.168;2022-09-17T06:54:42;1.38;;;0.55;;
36575;SDS011;45700;50.930;5.168;2022-09-17T06:58:44;1.13;;;0.80;;
36575;SDS011;45700;50.930;5.168;2022-09-17T07:02:55;0.98;;;0.43;;
36575;SDS011;45700;50.930;5.168;2022-09-17T07:06:56;0.85;;;0.43;;
36575;SDS011;45700;50.930;5.168;2022-09-17T07:10:57;2.88;;;0.50;;
36575;SDS011;45700;50.930;5.168;2022-09-17T07:14:58;4.07;;;0.90;;
36575;SDS011;45700;50.930;5.168;2022-09-17T07:19:00;1.08;;;0.32;;
36575;SDS011;45700;50.930;5.168;2022-09-17T07:23:01;4.38;;;0.95;;
36575;SDS011;45700;50.930;5.168;2022-09-17T07:27:02;1.83;;;0.70;;
36575;SDS011;45700;50.930;5.168;2022-09-17T07:31:03;2.42;;;0.55;;
36575;SDS011;45700;50.930;5.168;2022-09-17T07:35:05;1.45;;;0.70;;
36575;SDS011;45700;50.930;5.168;2022-09-17T07:39:06;3.63;;;0.73;;
36575;SDS011;45700;50.930;5.168;2022-09-17T07:43:07;2.35;;;0.70;;
36575;SDS011;45700;50.930;5.168;2022-09-17T07:47:08;2.63;;;0.47;;
36575;SDS011;45700;50.930;5.168;2022-09-17T07:51:14;0.95;;;0.60;;
36575;SDS011;45700;50.930;5.168;2022-09-17T07:55:15;2.63;;;0.63;;
36575;SDS011;45700;50.930;5.168;2022-09-17T07:59:16;0.82;;;0.30;;
36575;SDS011;45700;50.930;5.168;2022-09-17T08:03:18;1.63;;;0.50;;
36575;SDS011;45700;50.930;5.168;2022-09-17T08:07:19;0.70;;;0.55;;
36575;SDS011;45700;50.930;5.168;2022-09-17T08:11:21;1.90;;;0.60;;
36575;SDS011;45700;50.930;5.168;2022-09-17T08:15:22;2.33;;;0.57;;
36575;SDS011;45700;50.930;5.168;2022-09-17T08:19:24;3.92;;;0.55;;
36575;SDS011;45700;50.930;5.168;2022-09-17T08:23:25;2.03;;;0.73;;
36575;SDS011;45700;50.930;5.168;2022-09-17T08:27:26;3.28;;;0.50;;
36575;SDS011;45700;50.930;5.168;2022-09-17T08:31:29;2.25;;;0.88;;
36575;SDS011;45700;50.930;5.168;2022-09-17T08:35:32;2.55;;;0.40;;
36575;SDS011;45700;50.930;5.168;2022-09-17T08:39:33;0.95;;;0.20;;
36575;SDS011;45700;50.930;5.168;2022-09-17T08:43:35;2.08;;;1.00;;
36575;SDS011;45700;50.930;5.168;2022-09-17T08:47:42;3.40;;;0.55;;
36575;SDS011;45700;50.930;5.168;2022-09-17T08:59:50;2.83;;;0.50;;
36575;SDS011;45700;50.930;5.168;2022-09-17T09:08:04;1.08;;;0.47;;
36575;SDS011;45700;50.930;5.168;2022-09-17T09:12:10;4.38;;;0.90;;
36575;SDS011;45700;50.930;5.168;2022-09-17T09:16:20;1.38;;;0.40;;
36575;SDS011;45700;50.930;5.168;2022-09-17T09:20:26;2.55;;;0.50;;
36575;SDS011;45700;50.930;5.168;2022-09-17T09:24:39;3.38;;;0.70;;
36575;SDS011;45700;50.930;5.168;2022-09-17T09:28:42;2.25;;;0.68;;
36575;SDS011;45700;50.930;5.168;2022-09-17T09:32:48;2.80;;;0.40;;
36575;SDS011;45700;50.930;5.168;2022-09-17T09:36:52;1.23;;;0.40;;
36575;SDS011;45700;50.930;5.168;2022-09-17T09:40:56;1.25;;;0.40;;
36575;SDS011;45700;50.930;5.168;2022-09-17T09:45:01;2.08;;;0.47;;
36575;SDS011;45700;50.930;5.168;2022-09-17T09:49:09;1.20;;;0.50;;
36575;SDS011;45700;50.930;5.168;2022-09-17T09:53:31;2.20;;;0.75;;
36575;SDS011;45700;50.930;5.168;2022-09-17T09:57:48;1.23;;;0.43;;
36575;SDS011;45700;50.930;5.168;2022-09-17T10:01:50;1.63;;;0.45;;
36575;SDS011;45700;50.930;5.168;2022-09-17T10:06:07;1.75;;;0.35;;
36575;SDS011;45700;50.930;5.168;2022-09-17T10:10:09;2.85;;;0.55;;
36575;SDS011;45700;50.930;5.168;2022-09-17T10:14:14;2.67;;;0.30;;
36575;SDS011;45700;50.930;5.168;2022-09-17T10:18:19;0.68;;;0.40;;
36575;SDS011;45700;50.930;5.168;2022-09-17T10:22:30;5.10;;;0.80;;
36575;SDS011;45700;50.930;5.168;2022-09-17T10:26:32;2.88;;;0.63;;
36575;SDS011;45700;50.930;5.168;2022-09-17T10:30:34;2.50;;;0.40;;
36575;SDS011;45700;50.930;5.168;2022-09-17T10:34:35;2.47;;;0.80;;
36575;SDS011;45700;50.930;5.168;2022-09-17T10:38:43;1.58;;;0.57;;
36575;SDS011;45700;50.930;5.168;2022-09-17T10:42:48;1.38;;;0.55;;
36575;SDS011;45700;50.930;5.168;2022-09-17T10:46:50;1.50;;;0.60;;
36575;SDS011;45700;50.930;5.168;2022-09-17T10:50:52;1.60;;;0.45;;
36575;SDS011;45700;50.930;5.168;2022-09-17T10:55:06;1.30;;;0.77;;
36575;SDS011;45700;50.930;5.168;2022-09-17T10:59:25;2.28;;;0.45;;
36575;SDS011;45700;50.930;5.168;2022-09-17T11:07:41;2.08;;;0.20;;
36575;SDS011;45700;50.930;5.168;2022-09-17T11:36:00;0.30;;;0.30;;
36575;SDS011;45700;50.930;5.168;2022-09-17T11:40:18;1.08;;;0.30;;
36575;SDS011;45700;50.930;5.168;2022-09-17T11:44:26;1.27;;;0.60;;
36575;SDS011;45700;50.930;5.168;2022-09-17T11:48:30;0.43;;;0.22;;
36575;SDS011;45700;50.930;5.168;2022-09-17T11:52:36;1.00;;;0.40;;
36575;SDS011;45700;50.930;5.168;2022-09-17T11:56:46;0.50;;;0.30;;
36575;SDS011;45700;50.930;5.168;2022-09-17T12:00:49;1.25;;;0.30;;
36575;SDS011;45700;50.930;5.168;2022-09-17T12:04:54;2.90;;;0.40;;
36575;SDS011;45700;50.930;5.168;2022-09-17T12:09:09;2.53;;;0.40;;
36575;SDS011;45700;50.930;5.168;2022-09-17T12:13:17;0.40;;;0.30;;
36575;SDS011;45700;50.930;5.168;2022-09-17T12:17:20;2.15;;;0.30;;
36575;SDS011;45700;50.930;5.168;2022-09-17T12:21:24;1.05;;;0.30;;
36575;SDS011;45700;50.930;5.168;2022-09-17T12:25:27;0.25;;;0.25;;
36575;SDS011;45700;50.930;5.168;2022-09-17T12:29:35;0.20;;;0.20;;
36575;SDS011;45700;50.930;5.168;2022-09-17T12:33:41;1.05;;;0.20;;
36575;SDS011;45700;50.930;5.168;2022-09-17T12:38:05;1.75;;;0.20;;
36575;SDS011;45700;50.930;5.168;2022-09-17T12:58:54;1.63;;;0.57;;
36575;SDS011;45700;50.930;5.168;2022-09-17T13:03:02;0.30;;;0.30;;
36575;SDS011;45700;50.930;5.168;2022-09-17T13:23:42;1.33;;;0.50;;
36575;SDS011;45700;50.930;5.168;2022-09-17T13:27:44;0.40;;;0.30;;
36575;SDS011;45700;50.930;5.168;2022-09-17T13:31:46;1.40;;;0.50;;
36575;SDS011;45700;50.930;5.168;2022-09-17T13:35:47;3.65;;;0.80;;
36575;SDS011;45700;50.930;5.168;2022-09-17T13:39:49;2.45;;;0.68;;
36575;SDS011;45700;50.930;5.168;2022-09-17T13:43:50;4.28;;;0.40;;
36575;SDS011;45700;50.930;5.168;2022-09-17T13:47:56;1.83;;;0.50;;
36575;SDS011;45700;50.930;5.168;2022-09-17T13:51:58;0.95;;;0.40;;
36575;SDS011;45700;50.930;5.168;2022-09-17T13:55:59;0.98;;;0.32;;
36575;SDS011;45700;50.930;5.168;2022-09-17T14:00:01;1.13;;;0.30;;
36575;SDS011;45700;50.930;5.168;2022-09-17T14:04:03;1.20;;;0.45;;
36575;SDS011;45700;50.930;5.168;2022-09-17T14:08:08;1.00;;;0.40;;
36575;SDS011;45700;50.930;5.168;2022-09-17T14:20:39;1.13;;;0.40;;
36575;SDS011;45700;50.930;5.168;2022-09-17T14:28:49;1.88;;;0.47;;
36575;SDS011;45700;50.930;5.168;2022-09-17T14:36:54;7.30;;;1.52;;
36575;SDS011;45700;50.930;5.168;2022-09-17T14:41:06;2.28;;;0.40;;
36575;SDS011;45700;50.930;5.168;2022-09-17T14:45:18;0.98;;;0.30;;
36575;SDS011;45700;50.930;5.168;2022-09-17T14:49:25;3.92;;;1.10;;
36575;SDS011;45700;50.930;5.168;2022-09-17T14:53:27;2.80;;;0.40;;
36575;SDS011;45700;50.930;5.168;2022-09-17T14:57:28;1.30;;;0.47;;
36575;SDS011;45700;50.930;5.168;2022-09-17T15:01:30;4.18;;;0.77;;
36575;SDS011;45700;50.930;5.168;2022-09-17T15:05:32;3.08;;;0.68;;
36575;SDS011;45700;50.930;5.168;2022-09-17T15:09:35;2.42;;;0.50;;
36575;SDS011;45700;50.930;5.168;2022-09-17T15:13:40;1.63;;;0.40;;
36575;SDS011;45700;50.930;5.168;2022-09-17T15:17:41;2.20;;;0.30;;
36575;SDS011;45700;50.930;5.168;2022-09-17T15:21:43;0.93;;;0.20;;
36575;SDS011;45700;50.930;5.168;2022-09-17T15:25:44;1.83;;;0.40;;
36575;SDS011;45700;50.930;5.168;2022-09-17T15:29:49;2.72;;;0.77;;
36575;SDS011;45700;50.930;5.168;2022-09-17T15:33:51;0.50;;;0.40;;
36575;SDS011;45700;50.930;5.168;2022-09-17T15:38:01;3.40;;;0.40;;
36575;SDS011;45700;50.930;5.168;2022-09-17T15:42:04;0.73;;;0.40;;
36575;SDS011;45700;50.930;5.168;2022-09-17T15:54:29;7.50;;;1.00;;
36575;SDS011;45700;50.930;5.168;2022-09-17T16:02:38;1.08;;;0.55;;
36575;SDS011;45700;50.930;5.168;2022-09-17T16:06:44;1.45;;;0.50;;
36575;SDS011;45700;50.930;5.168;2022-09-17T16:10:47;2.60;;;0.40;;
36575;SDS011;45700;50.930;5.168;2022-09-17T16:14:49;3.97;;;0.55;;
36575;SDS011;45700;50.930;5.168;2022-09-17T16:18:50;1.83;;;0.50;;
36575;SDS011;45700;50.930;5.168;2022-09-17T16:22:52;2.17;;;0.45;;
36575;SDS011;45700;50.930;5.168;2022-09-17T16:26:53;1.65;;;0.50;;
36575;SDS011;45700;50.930;5.168;2022-09-17T16:30:54;2.53;;;0.98;;
36575;SDS011;45700;50.930;5.168;2022-09-17T16:34:56;1.27;;;0.47;;
36575;SDS011;45700;50.930;5.168;2022-09-17T16:38:57;1.33;;;0.82;;
36575;SDS011;45700;50.930;5.168;2022-09-17T16:42:59;0.98;;;0.20;;
36575;SDS011;45700;50.930;5.168;2022-09-17T16:47:00;3.50;;;0.68;;
36575;SDS011;45700;50.930;5.168;2022-09-17T16:51:08;1.35;;;0.40;;
36575;SDS011;45700;50.930;5.168;2022-09-17T16:55:10;1.05;;;0.38;;
36575;SDS011;45700;50.930;5.168;2022-09-17T16:59:12;2.13;;;0.75;;
36575;SDS011;45700;50.930;5.168;2022-09-17T17:03:13;2.25;;;0.60;;
36575;SDS011;45700;50.930;5.168;2022-09-17T17:07:14;7.70;;;0.68;;
36575;SDS011;45700;50.930;5.168;2022-09-17T17:11:15;1.58;;;0.50;;
36575;SDS011;45700;50.930;5.168;2022-09-17T17:15:16;2.75;;;0.65;;
36575;SDS011;45700;50.930;5.168;2022-09-17T17:19:18;2.50;;;0.73;;
36575;SDS011;45700;50.930;5.168;2022-09-17T17:23:19;1.92;;;0.93;;
36575;SDS011;45700;50.930;5.168;2022-09-17T17:27:20;2.38;;;0.95;;
36575;SDS011;45700;50.930;5.168;2022-09-17T17:31:21;4.32;;;0.70;;
36575;SDS011;45700;50.930;5.168;2022-09-17T17:35:22;1.65;;;0.82;;
36575;SDS011;45700;50.930;5.168;2022-09-17T17:39:23;2.75;;;0.73;;
36575;SDS011;45700;50.930;5.168;2022-09-17T17:43:24;1.35;;;0.60;;
36575;SDS011;45700;50.930;5.168;2022-09-17T17:47:25;0.93;;;0.47;;
36575;SDS011;45700;50.930;5.168;2022-09-17T17:51:26;1.33;;;0.47;;
36575;SDS011;45700;50.930;5.168;2022-09-17T17:55:27;3.63;;;0.60;;
36575;SDS011;45700;50.930;5.168;2022-09-17T17:59:28;2.92;;;0.52;;
36575;SDS011;45700;50.930;5.168;2022-09-17T18:03:29;2.30;;;1.05;;
36575;SDS011;45700;50.930;5.168;2022-09-17T18:07:30;2.65;;;1.30;;
36575;SDS011;45700;50.930;5.168;2022-09-17T18:11:32;0.93;;;0.57;;
36575;SDS011;45700;50.930;5.168;2022-09-17T18:15:33;0.88;;;0.55;;
36575;SDS011;45700;50.930;5.168;2022-09-17T18:19:35;1.60;;;0.60;;
36575;SDS011;45700;50.930;5.168;2022-09-17T18:23:36;1.30;;;0.75;;
36575;SDS011;45700;50.930;5.168;2022-09-17T18:27:37;3.00;;;0.80;;
36575;SDS011;45700;50.930;5.168;2022-09-17T18:31:38;3.53;;;0.70;;
36575;SDS011;45700;50.930;5.168;2022-09-17T18:35:39;3.42;;;0.70;;
36575;SDS011;45700;50.930;5.168;2022-09-17T18:39:40;2.03;;;1.02;;
36575;SDS011;45700;50.930;5.168;2022-09-17T18:43:41;2.33;;;0.77;;
36575;SDS011;45700;50.930;5.168;2022-09-17T18:47:42;3.30;;;1.13;;
36575;SDS011;45700;50.930;5.168;2022-09-17T18:51:43;3.03;;;0.80;;
36575;SDS011;45700;50.930;5.168;2022-09-17T18:55:45;1.00;;;0.50;;
36575;SDS011;45700;50.930;5.168;2022-09-17T18:59:46;0.80;;;0.70;;
36575;SDS011;45700;50.930;5.168;2022-09-17T19:03:47;2.72;;;0.60;;
36575;SDS011;45700;50.930;5.168;2022-09-17T19:07:48;1.85;;;0.60;;
36575;SDS011;45700;50.930;5.168;2022-09-17T19:11:49;2.28;;;0.70;;
36575;SDS011;45700;50.930;5.168;2022-09-17T19:15:50;3.13;;;0.77;;
36575;SDS011;45700;50.930;5.168;2022-09-17T19:19:51;1.75;;;0.50;;
36575;SDS011;45700;50.930;5.168;2022-09-17T19:23:52;3.78;;;0.85;;
36575;SDS011;45700;50.930;5.168;2022-09-17T19:27:53;1.85;;;0.75;;
36575;SDS011;45700;50.930;5.168;2022-09-17T19:31:55;1.25;;;0.60;;
36575;SDS011;45700;50.930;5.168;2022-09-17T19:35:59;1.08;;;0.60;;
36575;SDS011;45700;50.930;5.168;2022-09-17T19:40:00;1.98;;;0.90;;
36575;SDS011;45700;50.930;5.168;2022-09-17T19:44:02;3.38;;;0.88;;
36575;SDS011;45700;50.930;5.168;2022-09-17T19:48:03;1.85;;;0.70;;
36575;SDS011;45700;50.930;5.168;2022-09-17T19:52:04;1.77;;;0.73;;
36575;SDS011;45700;50.930;5.168;2022-09-17T19:56:15;1.48;;;0.60;;
36575;SDS011;45700;50.930;5.168;2022-09-17T20:00:16;2.53;;;0.98;;
36575;SDS011;45700;50.930;5.168;2022-09-17T20:04:17;3.63;;;1.00;;
36575;SDS011;45700;50.930;5.168;2022-09-17T20:08:18;3.60;;;1.38;;
36575;SDS011;45700;50.930;5.168;2022-09-17T20:12:19;3.92;;;0.98;;
36575;SDS011;45700;50.930;5.168;2022-09-17T20:16:20;3.13;;;0.88;;
36575;SDS011;45700;50.930;5.168;2022-09-17T20:20:21;1.83;;;0.90;;
36575;SDS011;45700;50.930;5.168;2022-09-17T20:24:27;2.53;;;1.02;;
36575;SDS011;45700;50.930;5.168;2022-09-17T20:28:28;1.25;;;0.90;;
36575;SDS011;45700;50.930;5.168;2022-09-17T20:32:29;1.30;;;1.00;;
36575;SDS011;45700;50.930;5.168;2022-09-17T20:36:31;1.23;;;0.80;;
36575;SDS011;45700;50.930;5.168;2022-09-17T20:40:32;5.40;;;1.00;;
36575;SDS011;45700;50.930;5.168;2022-09-17T20:44:33;1.42;;;0.63;;
36575;SDS011;45700;50.930;5.168;2022-09-17T20:48:34;1.40;;;0.70;;
36575;SDS011;45700;50.930;5.168;2022-09-17T20:52:35;2.65;;;0.70;;
36575;SDS011;45700;50.930;5.168;2022-09-17T20:56:36;1.10;;;0.60;;
36575;SDS011;45700;50.930;5.168;2022-09-17T21:00:37;2.22;;;0.80;;
36575;SDS011;45700;50.930;5.168;2022-09-17T21:04:41;1.45;;;0.82;;
36575;SDS011;45700;50.930;5.168;2022-09-17T21:08:42;1.95;;;1.13;;
36575;SDS011;45700;50.930;5.168;2022-09-17T21:12:43;0.93;;;0.50;;
36575;SDS011;45700;50.930;5.168;2022-09-17T21:16:44;1.70;;;0.90;;
36575;SDS011;45700;50.930;5.168;2022-09-17T21:20:45;2.30;;;0.73;;
36575;SDS011;45700;50.930;5.168;2022-09-17T21:24:46;1.92;;;0.40;;
36575;SDS011;45700;50.930;5.168;2022-09-17T21:28:48;1.00;;;0.52;;
36575;SDS011;45700;50.930;5.168;2022-09-17T21:32:50;1.88;;;0.43;;
36575;SDS011;45700;50.930;5.168;2022-09-17T21:36:52;3.65;;;1.00;;
36575;SDS011;45700;50.930;5.168;2022-09-17T21:40:54;1.08;;;0.65;;
36575;SDS011;45700;50.930;5.168;2022-09-17T21:44:55;0.90;;;0.50;;
36575;SDS011;45700;50.930;5.168;2022-09-17T21:48:57;1.27;;;0.43;;
36575;SDS011;45700;50.930;5.168;2022-09-17T21:52:59;1.27;;;0.50;;
36575;SDS011;45700;50.930;5.168;2022-09-17T21:57:00;1.10;;;0.47;;
36575;SDS011;45700;50.930;5.168;2022-09-17T22:01:04;4.57;;;0.60;;
36575;SDS011;45700;50.930;5.168;2022-09-17T22:05:05;1.02;;;0.50;;
36575;SDS011;45700;50.930;5.168;2022-09-17T22:09:09;1.30;;;0.75;;
36575;SDS011;45700;50.930;5.168;2022-09-17T22:13:12;2.97;;;0.77;;
36575;SDS011;45700;50.930;5.168;2022-09-17T22:17:13;1.95;;;0.88;;
36575;SDS011;45700;50.930;5.168;2022-09-17T22:21:16;1.55;;;0.80;;
36575;SDS011;45700;50.930;5.168;2022-09-17T22:25:19;1.08;;;0.70;;
36575;SDS011;45700;50.930;5.168;2022-09-17T22:29:20;1.05;;;0.70;;
36575;SDS011;45700;50.930;5.168;2022-09-17T22:33:21;1.27;;;0.75;;
36575;SDS011;45700;50.930;5.168;2022-09-17T22:37:22;0.95;;;0.70;;
36575;SDS011;45700;50.930;5.168;2022-09-17T22:41:24;1.35;;;1.00;;
36575;SDS011;45700;50.930;5.168;2022-09-17T22:45:26;2.25;;;1.02;;
36575;SDS011;45700;50.930;5.168;2022-09-17T22:49:28;1.05;;;0.80;;
36575;SDS011;45700;50.930;5.168;2022-09-17T22:53:29;1.27;;;0.98;;
36575;SDS011;45700;50.930;5.168;2022-09-17T22:57:30;1.52;;;0.98;;
36575;SDS011;45700;50.930;5.168;2022-09-17T23:01:31;2.50;;;0.90;;
36575;SDS011;45700;50.930;5.168;2022-09-17T23:05:33;2.72;;;0.80;;
36575;SDS011;45700;50.930;5.168;2022-09-17T23:09:34;2.92;;;1.05;;
36575;SDS011;45700;50.930;5.168;2022-09-17T23:13:35;1.10;;;0.80;;
36575;SDS011;45700;50.930;5.168;2022-09-17T23:17:36;2.67;;;1.08;;
36575;SDS011;45700;50.930;5.168;2022-09-17T23:21:37;1.88;;;1.00;;
36575;SDS011;45700;50.930;5.168;2022-09-17T23:25:38;2.33;;;0.63;;
36575;SDS011;45700;50.930;5.168;2022-09-17T23:29:39;2.50;;;0.90;;
36575;SDS011;45700;50.930;5.168;2022-09-17T23:33:40;3.33;;;0.98;;
36575;SDS011;45700;50.930;5.168;2022-09-17T23:37:41;1.83;;;0.77;;
36575;SDS011;45700;50.930;5.168;2022-09-17T23:41:42;1.52;;;0.85;;
36575;SDS011;45700;50.930;5.168;2022-09-17T23:45:44;2.33;;;0.75;;
36575;SDS011;45700;50.930;5.168;2022-09-17T23:49:45;1.77;;;0.70;;
36575;SDS011;45700;50.930;5.168;2022-09-17T23:53:46;1.63;;;0.80;;
36575;SDS011;45700;50.930;5.168;2022-09-17T23:57:47;3.45;;;1.05;;
